Time;durP1;ratioP1;P1;durP2;ratioP2;P2;SDS_P1;SDS_P2;PMS_P1;PMS_P2;Temp;Humidity;BMP_temperature;BMP_pressure;BME280_temperature;BME280_humidity;BME280_pressure;Samples;Min_cycle;Max_cycle;Signal;HPM_P1;HPM_P2
2022/01/02 00:01:21;;;;;;;14.73;8.97;;;;;;;9.75;94.95;101250.67;1670090;85;22192;-71
2022/01/02 00:03:52;;;;;;;15.10;9.57;;;;;;;9.72;95.02;101241.13;1670474;85;21107;-71
2022/01/02 00:06:25;;;;;;;18.73;10.07;;;;;;;9.71;95.06;101233.32;1670713;85;21503;-71
2022/01/02 00:09:01;;;;;;;24.53;11.00;;;;;;;9.69;95.04;101220.70;1670613;85;21040;-72
2022/01/02 00:11:29;;;;;;;18.10;7.90;;;;;;;9.67;95.05;101225.98;1670479;85;21051;-72
2022/01/02 00:14:08;;;;;;;15.30;7.87;;;;;;;9.67;95.03;101219.86;1670602;85;21146;-73
2022/01/02 00:16:38;;;;;;;16.67;8.73;;;;;;;9.66;95.05;101208.53;1652371;85;21035;-72
2022/01/02 00:19:20;;;;;;;15.13;8.15;;;;;;;9.66;95.11;101203.30;1661672;85;21051;-72
2022/01/02 00:21:44;;;;;;;16.20;8.40;;;;;;;9.71;95.47;101215.00;1677853;84;21052;-74
2022/01/02 00:24:13;;;;;;;16.50;8.58;;;;;;;9.75;95.54;101205.72;1683216;85;20982;-74
2022/01/02 00:26:45;;;;;;;21.40;9.30;;;;;;;9.76;95.41;101195.68;1684185;84;21145;-73
2022/01/02 00:29:13;;;;;;;18.10;9.27;;;;;;;9.78;95.30;101190.39;1683038;85;21040;-71
2022/01/02 00:31:41;;;;;;;16.73;8.50;;;;;;;9.81;95.34;101193.83;1682989;84;21034;-74
2022/01/02 00:34:10;;;;;;;17.23;8.10;;;;;;;9.81;95.19;101200.38;1683133;85;21038;-72
2022/01/02 00:36:37;;;;;;;17.87;8.97;;;;;;;9.79;94.88;101205.23;1686741;84;21053;-74
2022/01/02 00:39:06;;;;;;;13.77;8.43;;;;;;;9.77;94.79;101197.39;1683161;85;21135;-71
2022/01/02 00:41:56;;;;;;;15.57;8.07;;;;;;;9.75;94.73;101204.41;1692381;84;21464;-71
2022/01/02 00:44:59;;;;;;;14.40;8.23;;;;;;;9.74;94.84;101204.45;1683405;85;21016;-71
2022/01/02 00:47:37;;;;;;;19.57;8.50;;;;;;;9.75;94.88;101215.33;1682209;85;21042;-72
2022/01/02 00:50:19;;;;;;;18.60;9.23;;;;;;;9.74;94.99;101208.39;1682920;85;21042;-72
2022/01/02 00:52:49;;;;;;;16.80;8.40;;;;;;;9.75;94.98;101207.03;1683050;85;21144;-71
2022/01/02 00:55:22;;;;;;;17.05;8.85;;;;;;;9.74;94.89;101200.08;1684145;84;21036;-71
2022/01/02 00:57:59;;;;;;;16.90;9.33;;;;;;;9.74;95.02;101193.53;1682924;85;21030;-71
2022/01/02 01:00:30;;;;;;;19.93;9.57;;;;;;;9.77;95.08;101197.84;1696456;84;21054;-72
2022/01/02 01:03:03;;;;;;;33.13;16.17;;;;;;;9.78;95.03;101180.81;1683154;85;21555;-72
2022/01/02 01:05:34;;;;;;;32.77;14.63;;;;;;;9.82;95.17;101185.08;1668548;85;22154;-72
2022/01/02 01:08:07;;;;;;;29.37;15.27;;;;;;;9.83;95.02;101173.69;1683152;85;20953;-71
2022/01/02 01:10:39;;;;;;;39.53;22.90;;;;;;;9.87;95.02;101168.42;1683782;84;22147;-71
2022/01/02 01:13:09;;;;;;;33.97;22.87;;;;;;;9.83;94.64;101162.36;1682984;85;21046;-73
2022/01/02 01:15:37;;;;;;;36.77;19.92;;;;;;;9.82;94.64;101167.20;1683443;84;21615;-71
2022/01/02 01:18:05;;;;;;;39.40;18.70;;;;;;;9.78;94.37;101164.22;1683289;85;21252;-72
2022/01/02 01:20:43;;;;;;;33.13;17.13;;;;;;;9.70;93.87;101163.52;1680600;85;21057;-75
2022/01/02 01:23:16;;;;;;;30.33;16.57;;;;;;;9.59;93.79;101167.24;1656927;86;21397;-71
2022/01/02 01:25:46;;;;;;;21.23;12.10;;;;;;;9.53;93.69;101174.34;1648357;86;21053;-73
2022/01/02 01:28:15;;;;;;;27.93;13.17;;;;;;;9.43;93.53;101162.35;1629551;88;21466;-71
2022/01/02 01:30:44;;;;;;;24.72;12.98;;;;;;;9.35;93.60;101161.19;1635525;87;21145;-71
2022/01/02 01:33:11;;;;;;;23.17;14.33;;;;;;;9.27;93.72;101155.24;1639011;87;21054;-72
2022/01/02 01:35:40;;;;;;;27.00;15.33;;;;;;;9.26;94.10;101158.77;1638812;86;21740;-71
2022/01/02 01:38:07;;;;;;;24.80;13.63;;;;;;;9.21;93.84;101144.45;1641228;87;21027;-71
2022/01/02 01:40:40;;;;;;;18.07;10.10;;;;;;;9.16;93.60;101155.45;1637234;87;21031;-72
2022/01/02 01:43:09;;;;;;;15.83;8.90;;;;;;;9.06;93.22;101155.20;1639321;87;21477;-71
2022/01/02 01:45:38;;;;;;;27.87;16.33;;;;;;;8.91;92.89;101153.28;1638589;86;21540;-74
2022/01/02 01:48:07;;;;;;;15.30;8.00;;;;;;;8.81;93.01;101153.05;1629732;87;22120;-72
2022/01/02 01:50:42;;;;;;;19.10;9.40;;;;;;;8.71;92.68;101151.03;1640603;86;21058;-71
2022/01/02 01:53:11;;;;;;;21.87;11.70;;;;;;;8.63;93.15;101148.99;1638951;86;21021;-71
2022/01/02 01:55:40;;;;;;;18.23;9.90;;;;;;;8.63;93.71;101141.15;1637135;87;21210;-71
2022/01/02 01:58:07;;;;;;;19.97;10.07;;;;;;;8.62;93.79;101138.13;1640982;87;21027;-73
2022/01/02 02:00:36;;;;;;;15.40;8.30;;;;;;;8.53;93.18;101134.80;1641657;86;21046;-71
2022/01/02 02:03:05;;;;;;;19.43;9.97;;;;;;;8.46;93.28;101129.68;1633273;87;21017;-71
2022/01/02 02:05:32;;;;;;;20.23;10.87;;;;;;;8.37;93.17;101126.31;1629825;88;21494;-71
2022/01/02 02:07:59;;;;;;;16.93;8.93;;;;;;;8.34;93.76;101119.41;1629717;88;21186;-71
2022/01/02 02:10:35;;;;;;;18.63;10.10;;;;;;;8.35;94.14;101104.59;1638422;87;21047;-71
2022/01/02 02:13:01;;;;;;;23.93;11.10;;;;;;;8.33;93.65;101105.91;1639487;87;21070;-71
2022/01/02 02:15:29;;;;;;;20.77;10.55;;;;;;;8.27;94.15;101100.34;1637967;87;21068;-71
2022/01/02 02:17:58;;;;;;;16.40;9.13;;;;;;;8.31;94.49;101103.77;1629389;87;21562;-71
2022/01/02 02:20:33;;;;;;;13.50;7.70;;;;;;;8.25;93.94;101097.34;1629221;88;21138;-71
2022/01/02 02:23:04;;;;;;;17.87;8.87;;;;;;;8.20;93.55;101091.33;1626516;85;21070;-71
2022/01/02 02:25:35;;;;;;;14.40;8.13;;;;;;;8.08;93.41;101087.17;1670977;84;21460;-71
2022/01/02 02:28:12;;;;;;;16.50;8.40;;;;;;;8.07;93.80;101076.32;1657943;86;21060;-74
2022/01/02 02:30:43;;;;;;;13.63;7.60;;;;;;;8.03;93.66;101083.77;1649227;86;21054;-72
2022/01/02 02:33:11;;;;;;;14.10;8.40;;;;;;;7.94;93.18;101087.83;1665908;86;21217;-72
2022/01/02 02:35:42;;;;;;;18.27;10.80;;;;;;;7.85;93.39;101082.31;1644082;87;21050;-72
2022/01/02 02:38:11;;;;;;;14.93;7.40;;;;;;;7.80;93.23;101077.59;1653287;85;21030;-73
2022/01/02 02:40:39;;;;;;;16.17;8.60;;;;;;;7.75;92.84;101074.19;1648451;86;21062;-73
2022/01/02 02:51:36;;;;;;;10.58;6.92;;;;;;;7.41;92.73;101059.02;1661265;86;21030;-75
2022/01/02 02:53:56;;;;;;;12.37;7.30;;;;;;;7.27;92.49;101053.13;1655397;85;21038;-72
2022/01/02 02:56:26;;;;;;;13.40;7.57;;;;;;;7.15;92.09;101043.72;1655054;86;21023;-72
2022/01/02 02:58:56;;;;;;;12.17;7.70;;;;;;;7.02;91.99;101039.08;1652673;86;21215;-72
2022/01/02 03:01:27;;;;;;;12.10;7.90;;;;;;;6.96;92.33;101030.05;1654778;86;21059;-72
2022/01/02 03:03:55;;;;;;;11.83;6.73;;;;;;;6.89;92.30;101024.02;1651261;86;21054;-73
2022/01/02 03:06:23;;;;;;;12.03;6.60;;;;;;;6.79;92.04;101018.94;1650881;87;21057;-75
2022/01/02 03:08:52;;;;;;;9.47;6.30;;;;;;;6.73;91.96;101019.02;1651710;86;21085;-72
2022/01/02 03:11:23;;;;;;;10.20;6.83;;;;;;;6.65;92.30;101012.58;1650767;87;21188;-73
2022/01/02 03:13:54;;;;;;;15.43;9.00;;;;;;;6.59;92.33;101000.93;1652087;86;21476;-72
2022/01/02 03:16:22;;;;;;;14.70;8.85;;;;;;;6.60;93.20;100994.41;1660980;86;21471;-72
2022/01/02 03:18:49;;;;;;;12.27;6.87;;;;;;;6.67;94.08;100989.53;1654172;86;21019;-72
2022/01/02 03:21:16;;;;;;;30.17;14.17;;;;;;;6.61;92.94;100985.70;1652121;86;21547;-72
2022/01/02 03:23:43;;;;;;;13.07;8.03;;;;;;;6.57;93.35;100987.94;1652761;86;21212;-73
2022/01/02 03:26:10;;;;;;;14.73;7.90;;;;;;;6.59;93.59;100985.30;1653184;86;21069;-72
2022/01/02 03:28:37;;;;;;;19.73;10.37;;;;;;;6.54;93.26;100984.48;1653523;86;21647;-74
2022/01/02 03:31:04;;;;;;;18.40;9.53;;;;;;;6.57;93.79;100977.94;1658278;86;21031;-72
2022/01/02 03:33:33;;;;;;;17.40;8.57;;;;;;;6.48;92.98;100961.56;1667383;86;21031;-72
2022/01/02 03:36:01;;;;;;;14.63;7.83;;;;;;;6.41;92.68;100957.29;1667629;86;21106;-73
2022/01/02 03:38:29;;;;;;;13.40;7.90;;;;;;;6.33;92.68;100952.60;1660752;86;21496;-72
2022/01/02 03:40:56;;;;;;;13.40;8.33;;;;;;;6.36;93.42;100947.36;1654525;85;21531;-73
2022/01/02 03:43:23;;;;;;;13.17;7.80;;;;;;;6.32;92.75;100951.30;1667507;86;21019;-75
2022/01/02 03:45:51;;;;;;;12.23;7.10;;;;;;;6.27;92.92;100946.17;1662143;86;21616;-72
2022/01/02 03:48:18;;;;;;;12.87;7.70;;;;;;;6.18;92.22;100939.32;1656998;86;21141;-73
2022/01/02 03:50:47;;;;;;;12.93;7.53;;;;;;;6.11;92.50;100922.03;1657446;86;21508;-73
2022/01/02 03:53:14;;;;;;;14.33;8.37;;;;;;;6.12;93.10;100917.68;1667340;85;21071;-72
2022/01/02 03:55:42;;;;;;;14.87;8.20;;;;;;;6.10;92.81;100906.00;1670660;85;21008;-73
2022/01/02 03:58:09;;;;;;;15.87;8.77;;;;;;;6.01;92.39;100900.46;1669904;85;20983;-76
2022/01/02 04:00:36;;;;;;;15.37;8.23;;;;;;;6.01;92.82;100895.25;1670672;85;21132;-76
2022/01/02 04:03:04;;;;;;;12.30;7.33;;;;;;;5.98;93.00;100890.05;1655509;86;21062;-75
2022/01/02 04:05:31;;;;;;;12.17;7.63;;;;;;;5.98;93.14;100883.99;1645768;85;21050;-72
2022/01/02 04:07:58;;;;;;;12.23;7.20;;;;;;;6.02;93.85;100883.95;1670456;85;21597;-72
2022/01/02 04:10:25;;;;;;;12.37;8.27;;;;;;;6.00;93.40;100880.50;1652848;86;21014;-76
2022/01/02 04:12:53;;;;;;;24.50;11.80;;;;;;;6.08;94.45;100871.31;1634156;87;21818;-75
2022/01/02 04:15:20;;;;;;;17.90;9.77;;;;;;;6.22;95.36;100856.40;1633643;86;21081;-73
2022/01/02 04:17:47;;;;;;;22.70;10.33;;;;;;;6.35;95.67;100848.02;1651131;86;21496;-75
2022/01/02 04:20:16;;;;;;;70.13;36.50;;;;;;;6.44;95.63;100843.98;1642437;87;21115;-72
2022/01/02 04:22:44;;;;;;;46.30;23.43;;;;;;;6.54;96.01;100843.44;1649028;86;21275;-72
2022/01/02 04:25:13;;;;;;;31.83;15.93;;;;;;;6.66;96.42;100835.44;1603314;89;21935;-72
2022/01/02 04:27:41;;;;;;;19.57;10.53;;;;;;;6.78;96.42;100835.70;1610950;86;21550;-75
2022/01/02 04:30:12;;;;;;;16.57;8.90;;;;;;;6.84;95.89;100854.28;1629678;88;21050;-72
2022/01/02 04:32:40;;;;;;;19.27;9.30;;;;;;;6.82;95.37;100860.84;1623077;88;21522;-72
2022/01/02 04:35:08;;;;;;;19.03;9.70;;;;;;;6.79;95.03;100874.33;1603451;89;21038;-73
2022/01/02 04:37:36;;;;;;;17.97;9.60;;;;;;;6.78;95.05;100870.87;1604569;88;21162;-73
2022/01/02 04:40:06;;;;;;;22.90;15.23;;;;;;;6.80;95.43;100857.39;1636253;86;21551;-75
2022/01/02 04:42:33;;;;;;;24.30;14.70;;;;;;;6.86;95.63;100846.87;1652427;86;21067;-73
2022/01/02 04:45:01;;;;;;;20.97;12.13;;;;;;;6.90;95.61;100826.83;1634340;86;21583;-72
2022/01/02 04:47:29;;;;;;;19.03;10.77;;;;;;;6.95;95.83;100827.63;1635238;86;21044;-72
2022/01/02 04:49:56;;;;;;;17.20;9.77;;;;;;;7.03;95.91;100844.45;1612166;86;21116;-73
2022/01/02 04:52:23;;;;;;;19.30;10.17;;;;;;;7.03;95.39;100844.45;1655436;86;21048;-73
2022/01/02 04:54:51;;;;;;;19.17;11.03;;;;;;;7.03;95.43;100831.42;1655364;86;21111;-73
2022/01/02 04:57:19;;;;;;;25.23;12.03;;;;;;;7.07;95.56;100823.55;1625508;86;21042;-72
2022/01/02 04:59:46;;;;;;;25.33;12.20;;;;;;;7.13;95.65;100821.28;1629136;86;21361;-73
2022/01/02 05:02:13;;;;;;;19.50;10.57;;;;;;;7.20;95.88;100808.55;1629215;86;21116;-72
2022/01/02 05:04:41;;;;;;;19.83;9.83;;;;;;;7.23;95.51;100809.80;1629195;86;21093;-72
2022/01/02 05:07:11;;;;;;;17.20;9.67;;;;;;;7.25;95.39;100803.27;1629309;86;21409;-72
2022/01/02 05:09:40;;;;;;;18.40;10.05;;;;;;;7.27;95.41;100798.89;1629804;86;21051;-73
2022/01/02 05:12:09;;;;;;;20.97;10.20;;;;;;;7.31;95.62;100801.85;1626896;86;21101;-73
2022/01/02 05:14:36;;;;;;;19.13;10.23;;;;;;;7.32;95.32;100786.20;1629194;88;21151;-73
2022/01/02 05:17:04;;;;;;;19.90;10.30;;;;;;;7.34;95.36;100786.15;1631028;86;21040;-72
2022/01/02 05:19:32;;;;;;;17.30;9.97;;;;;;;7.33;94.92;100790.96;1652443;86;21079;-72
2022/01/02 05:22:00;;;;;;;19.20;10.00;;;;;;;7.30;94.83;100804.91;1640066;86;21043;-72
2022/01/02 05:24:28;;;;;;;19.13;10.07;;;;;;;7.25;94.58;100802.81;1668155;85;21116;-72
2022/01/02 05:26:56;;;;;;;20.57;10.53;;;;;;;7.23;94.67;100797.20;1668046;86;21146;-73
2022/01/02 05:29:23;;;;;;;16.13;9.57;;;;;;;7.20;94.72;100796.81;1666889;86;21095;-72
2022/01/02 05:31:52;;;;;;;17.53;9.90;;;;;;;7.24;95.20;100776.79;1658123;85;21479;-72
2022/01/02 05:34:20;;;;;;;16.77;9.27;;;;;;;7.28;95.31;100784.96;1656234;86;21053;-72
2022/01/02 05:36:50;;;;;;;16.60;9.23;;;;;;;7.22;94.50;100774.19;1656318;86;21508;-72
2022/01/02 05:39:20;;;;;;;18.23;9.83;;;;;;;7.17;94.15;100780.38;1657700;85;21240;-73
2022/01/02 05:41:49;;;;;;;19.37;11.03;;;;;;;7.13;94.36;100769.15;1656383;86;21037;-72
2022/01/02 05:44:17;;;;;;;20.83;10.90;;;;;;;7.13;94.70;100774.36;1656218;86;21097;-72
2022/01/02 05:46:45;;;;;;;20.73;9.83;;;;;;;7.18;94.93;100768.63;1655884;86;21057;-72
2022/01/02 05:49:12;;;;;;;18.70;10.10;;;;;;;7.19;94.93;100765.13;1666813;86;21488;-74
2022/01/02 05:51:41;;;;;;;18.00;9.67;;;;;;;7.16;94.70;100752.15;1660760;86;21197;-72
2022/01/02 05:54:08;;;;;;;15.93;10.03;;;;;;;7.12;94.39;100760.89;1665629;85;21528;-72
2022/01/02 05:56:35;;;;;;;17.10;8.90;;;;;;;7.08;94.33;100762.70;1678570;85;21027;-74
2022/01/02 05:59:02;;;;;;;12.40;8.40;;;;;;;6.95;93.48;100750.75;1657095;85;21058;-72
2022/01/02 06:01:29;;;;;;;17.67;8.33;;;;;;;6.83;93.23;100753.13;1656252;86;21649;-72
2022/01/02 06:03:57;;;;;;;15.20;8.73;;;;;;;6.76;93.13;100753.23;1656896;86;21150;-72
2022/01/02 06:06:25;;;;;;;14.30;8.47;;;;;;;6.64;92.79;100749.08;1663897;85;21062;-72
2022/01/02 06:08:52;;;;;;;18.23;9.40;;;;;;;6.56;93.15;100741.38;1673428;85;21658;-72
2022/01/02 06:11:21;;;;;;;16.47;9.17;;;;;;;6.54;93.66;100718.43;1656444;86;21074;-73
2022/01/02 06:13:48;;;;;;;15.27;8.17;;;;;;;6.53;93.61;100724.95;1645338;86;21066;-72
2022/01/02 06:16:16;;;;;;;17.57;10.10;;;;;;;6.50;93.89;100711.53;1653458;86;21290;-73
2022/01/02 06:18:43;;;;;;;16.30;9.37;;;;;;;6.52;94.04;100710.22;1655875;86;21054;-72
2022/01/02 06:21:11;;;;;;;16.70;9.43;;;;;;;6.53;93.91;100707.57;1656372;86;21034;-73
2022/01/02 06:23:39;;;;;;;17.83;8.83;;;;;;;6.47;93.76;100708.97;1653832;86;21038;-73
2022/01/02 06:26:06;;;;;;;19.93;11.03;;;;;;;6.43;93.57;100713.83;1651816;86;21128;-72
2022/01/02 06:28:34;;;;;;;17.53;9.77;;;;;;;6.38;93.54;100713.03;1645993;86;21212;-72
2022/01/02 06:31:01;;;;;;;17.27;9.33;;;;;;;6.30;93.26;100714.44;1651152;86;21100;-72
2022/01/02 06:33:28;;;;;;;19.37;10.20;;;;;;;6.27;93.60;100713.18;1635143;86;21110;-73
2022/01/02 06:35:55;;;;;;;21.50;10.87;;;;;;;6.29;93.95;100702.73;1626403;88;21065;-72
2022/01/02 06:38:22;;;;;;;17.53;10.37;;;;;;;6.31;94.30;100704.42;1626213;88;21597;-73
2022/01/02 06:40:51;;;;;;;15.87;8.87;;;;;;;6.36;94.50;100702.63;1650800;86;21155;-72
2022/01/02 06:43:21;;;;;;;16.77;9.73;;;;;;;6.30;93.62;100699.27;1653262;86;21056;-73
2022/01/02 06:45:48;;;;;;;15.17;8.20;;;;;;;6.22;93.69;100689.81;1645941;86;21058;-73
2022/01/02 06:48:16;;;;;;;14.57;8.90;;;;;;;6.18;93.53;100682.05;1635453;86;21059;-76
2022/01/02 06:50:43;;;;;;;16.13;9.60;;;;;;;6.13;93.62;100674.78;1652551;86;21597;-75
2022/01/02 06:53:12;;;;;;;19.93;10.60;;;;;;;6.13;93.92;100669.58;1653260;86;21135;-75
2022/01/02 06:55:38;;;;;;;19.27;11.23;;;;;;;6.12;93.80;100671.73;1667779;85;21016;-74
2022/01/02 06:58:07;;;;;;;23.47;11.80;;;;;;;6.02;93.38;100654.97;1670393;85;21032;-76
2022/01/02 07:00:35;;;;;;;13.63;8.27;;;;;;;6.00;93.72;100651.97;1669093;85;21095;-75
2022/01/02 07:03:03;;;;;;;16.63;8.33;;;;;;;5.95;93.30;100643.36;1670693;85;20999;-73
2022/01/02 07:05:30;;;;;;;18.33;11.00;;;;;;;5.93;93.59;100645.08;1652203;86;21971;-75
2022/01/02 07:07:58;;;;;;;21.07;11.93;;;;;;;5.91;93.81;100650.33;1644117;86;21675;-74
2022/01/02 07:10:26;;;;;;;16.80;10.63;;;;;;;5.85;93.31;100645.62;1669921;85;21066;-74
2022/01/02 07:12:54;;;;;;;18.20;10.20;;;;;;;5.86;93.90;100636.96;1665297;85;21042;-72
2022/01/02 07:15:21;;;;;;;17.53;10.23;;;;;;;5.87;94.22;100644.73;1675456;84;21016;-78
2022/01/02 07:17:48;;;;;;;16.57;9.63;;;;;;;5.91;94.66;100645.56;1671675;84;21176;-71
2022/01/02 07:20:15;;;;;;;12.70;8.33;;;;;;;5.96;94.87;100657.66;1666210;85;21463;-72
2022/01/02 07:22:42;;;;;;;14.33;7.73;;;;;;;5.96;94.40;100662.87;1672042;85;21204;-79
2022/01/02 07:25:11;;;;;;;13.63;7.40;;;;;;;5.94;93.98;100672.88;1686540;84;21452;-71
2022/01/02 07:27:38;;;;;;;12.33;7.70;;;;;;;5.88;93.57;100673.78;1667628;85;21378;-72
2022/01/02 07:30:08;;;;;;;13.03;8.33;;;;;;;5.78;93.25;100664.37;1679832;85;21159;-71
2022/01/02 07:32:35;;;;;;;13.57;7.90;;;;;;;5.76;93.47;100655.72;1677778;83;21090;-72
2022/01/02 07:35:07;;;;;;;17.73;11.75;;;;;;;5.75;93.61;100653.56;1678014;85;21601;-73
2022/01/02 07:37:34;;;;;;;20.03;11.37;;;;;;;5.75;93.66;100644.46;1689325;84;20987;-72
2022/01/02 07:40:04;;;;;;;15.70;9.80;;;;;;;5.78;94.12;100643.11;1683119;84;22306;-73
2022/01/02 07:42:31;;;;;;;14.95;10.25;;;;;;;5.84;94.57;100638.27;1680995;84;21136;-72
2022/01/02 07:45:00;;;;;;;16.50;9.30;;;;;;;5.88;94.44;100637.36;1681152;85;21055;-72
2022/01/02 07:47:27;;;;;;;15.93;9.47;;;;;;;5.88;94.37;100639.96;1636382;86;21039;-73
2022/01/02 07:49:54;;;;;;;18.00;9.77;;;;;;;5.90;94.39;100639.48;1655370;86;21057;-77
2022/01/02 07:52:21;;;;;;;21.47;11.53;;;;;;;5.95;94.71;100649.86;1681681;85;21120;-73
2022/01/02 07:54:48;;;;;;;17.87;10.93;;;;;;;5.96;94.46;100651.61;1664750;85;21891;-72
2022/01/02 07:57:15;;;;;;;17.57;10.30;;;;;;;5.93;94.33;100647.30;1682929;85;21037;-72
2022/01/02 07:59:42;;;;;;;20.53;11.17;;;;;;;5.97;94.97;100646.81;1682890;85;21006;-72
2022/01/02 08:02:09;;;;;;;17.63;11.33;;;;;;;6.07;95.34;100656.22;1683186;85;21454;-72
2022/01/02 08:04:35;;;;;;;21.67;11.50;;;;;;;6.13;95.26;100658.72;1682982;85;21048;-74
2022/01/02 08:07:03;;;;;;;20.37;10.97;;;;;;;6.18;95.29;100663.84;1681820;85;21165;-73
2022/01/02 08:09:29;;;;;;;17.67;10.83;;;;;;;6.20;94.98;100656.88;1684758;84;21053;-79
2022/01/02 08:11:56;;;;;;;31.33;18.97;;;;;;;6.20;94.80;100636.05;1654333;85;20970;-73
2022/01/02 08:14:23;;;;;;;29.73;17.57;;;;;;;6.20;94.82;100616.08;1682815;85;22273;-72
2022/01/02 08:16:50;;;;;;;33.90;20.80;;;;;;;6.23;95.06;100622.98;1686679;84;21034;-71
2022/01/02 08:19:17;;;;;;;18.43;11.17;;;;;;;6.31;95.25;100620.27;1686471;84;21101;-80
2022/01/02 08:21:44;;;;;;;18.83;10.80;;;;;;;6.36;95.12;100602.84;1678225;85;20939;-73
2022/01/02 08:24:11;;;;;;;17.23;9.73;;;;;;;6.40;95.16;100605.79;1667260;85;21157;-74
2022/01/02 08:26:39;;;;;;;16.37;9.13;;;;;;;6.48;95.34;100600.91;1643926;85;21620;-74
2022/01/02 08:29:05;;;;;;;14.23;8.20;;;;;;;6.54;95.31;100592.54;1620758;87;21045;-74
2022/01/02 08:31:33;;;;;;;15.07;8.80;;;;;;;6.62;95.40;100592.84;1605446;87;21098;-74
2022/01/02 08:34:01;;;;;;;14.30;8.47;;;;;;;6.74;95.86;100581.80;1611008;87;21057;-73
2022/01/02 08:36:29;;;;;;;18.13;8.77;;;;;;;6.85;95.72;100588.52;1621941;87;21556;-74
2022/01/02 08:38:58;;;;;;;18.00;9.00;;;;;;;6.92;95.39;100591.85;1625890;87;21529;-74
2022/01/02 08:41:26;;;;;;;13.77;8.57;;;;;;;6.96;95.29;100590.06;1627751;88;21053;-72
2022/01/02 08:43:55;;;;;;;17.60;8.60;;;;;;;6.99;95.07;100586.95;1645027;87;21075;-72
2022/01/02 08:46:22;;;;;;;14.43;7.90;;;;;;;7.02;94.83;100582.98;1627669;87;21320;-72
2022/01/02 08:48:49;;;;;;;14.80;8.20;;;;;;;7.06;94.76;100581.16;1627533;87;21508;-71
2022/01/02 08:51:16;;;;;;;16.23;8.67;;;;;;;7.10;94.67;100575.02;1627668;88;21057;-73
2022/01/02 08:53:43;;;;;;;19.97;9.07;;;;;;;7.13;94.55;100574.95;1627372;88;21031;-74
2022/01/02 08:56:10;;;;;;;15.80;8.17;;;;;;;7.18;94.49;100567.90;1627583;87;21982;-81
2022/01/02 08:58:38;;;;;;;13.00;8.10;;;;;;;7.21;94.37;100559.16;1645314;87;21030;-80
2022/01/02 09:01:04;;;;;;;13.97;8.40;;;;;;;7.24;94.37;100568.22;1627560;88;21566;-73
2022/01/02 09:03:33;;;;;;;20.10;9.10;;;;;;;7.29;94.35;100568.98;1627428;87;21062;-77
2022/01/02 09:06:00;;;;;;;14.37;7.80;;;;;;;7.32;94.19;100563.25;1627533;88;21309;-72
2022/01/02 09:08:27;;;;;;;11.30;7.47;;;;;;;7.37;94.20;100577.06;1627206;87;21152;-73
2022/01/02 09:10:54;;;;;;;13.43;7.50;;;;;;;7.42;94.09;100576.94;1627234;88;21053;-73
2022/01/02 09:13:23;;;;;;;13.40;7.47;;;;;;;7.48;94.18;100584.66;1645283;87;21038;-76
2022/01/02 09:15:50;;;;;;;11.83;6.77;;;;;;;7.55;94.02;100591.89;1627260;87;21019;-74
2022/01/02 09:18:17;;;;;;;12.50;7.23;;;;;;;7.62;94.14;100586.09;1627308;88;21027;-75
2022/01/02 09:20:44;;;;;;;14.30;9.67;;;;;;;7.71;94.13;100578.08;1627189;88;21209;-74
2022/01/02 09:23:12;;;;;;;15.70;9.90;;;;;;;7.79;93.95;100568.33;1628500;86;21073;-77
2022/01/02 09:25:39;;;;;;;12.47;8.00;;;;;;;7.90;94.31;100558.92;1668354;85;21070;-77
2022/01/02 09:28:06;;;;;;;28.63;14.53;;;;;;;7.97;93.99;100550.91;1653927;86;21535;-77
2022/01/02 09:30:33;;;;;;;16.33;9.60;;;;;;;8.03;93.97;100565.56;1670723;85;21045;-75
2022/01/02 09:33:03;;;;;;;13.70;8.33;;;;;;;8.08;93.81;100568.08;1641103;87;21258;-78
2022/01/02 09:35:32;;;;;;;20.93;10.57;;;;;;;8.12;93.61;100564.48;1655282;86;21128;-74
2022/01/02 09:37:59;;;;;;;32.47;19.40;;;;;;;8.16;93.45;100567.00;1670007;85;21062;-78
2022/01/02 09:40:28;;;;;;;15.17;9.30;;;;;;;8.18;93.37;100564.36;1669973;85;21046;-72
2022/01/02 09:42:57;;;;;;;16.57;8.47;;;;;;;8.22;93.42;100559.45;1670291;85;21026;-76
2022/01/02 09:45:26;;;;;;;15.67;8.23;;;;;;;8.28;93.43;100561.91;1670065;85;21998;-76
2022/01/02 09:47:53;;;;;;;16.40;9.93;;;;;;;8.33;93.24;100549.59;1670096;85;21003;-78
2022/01/02 09:50:20;;;;;;;13.70;9.67;;;;;;;8.42;93.34;100545.92;1670495;85;21052;-77
2022/01/02 09:52:49;;;;;;;18.40;11.70;;;;;;;8.52;93.35;100555.24;1670302;85;21007;-77
2022/01/02 09:55:16;;;;;;;13.80;9.23;;;;;;;8.60;93.27;100555.05;1670431;85;21072;-76
2022/01/02 09:57:45;;;;;;;14.57;8.17;;;;;;;8.63;93.16;100555.82;1670242;85;21132;-76
2022/01/02 10:00:14;;;;;;;11.60;8.30;;;;;;;8.67;92.81;100540.91;1670285;85;21073;-77
2022/01/02 10:03:00;;;;;;;12.23;7.43;;;;;;;8.73;92.74;100540.77;1670467;85;21014;-73
2022/01/02 10:05:31;;;;;;;16.80;10.40;;;;;;;8.83;92.82;100526.52;1609595;89;21135;-73
2022/01/02 10:08:00;;;;;;;12.27;8.20;;;;;;;8.97;92.86;100526.59;1606051;88;21067;-76
2022/01/02 10:10:34;;;;;;;16.67;10.10;;;;;;;9.06;92.87;100525.90;1609968;89;21117;-74
2022/01/02 10:13:03;;;;;;;35.93;20.40;;;;;;;9.13;92.71;100516.95;1609987;89;21086;-72
2022/01/02 10:15:32;;;;;;;37.45;22.75;;;;;;;9.13;92.32;100513.48;1610104;89;21350;-78
2022/01/02 10:18:06;;;;;;;66.37;35.17;;;;;;;9.15;92.22;100514.31;1610234;89;21036;-79
2022/01/02 10:20:40;;;;;;;24.70;13.83;;;;;;;9.14;92.09;100510.84;1609897;89;21548;-80
2022/01/02 10:23:23;;;;;;;22.07;13.63;;;;;;;9.16;91.98;100505.09;1609981;89;21921;-77
2022/01/02 10:25:57;;;;;;;29.00;16.87;;;;;;;9.15;91.65;100499.92;1609823;89;21078;-77
2022/01/02 10:28:42;;;;;;;33.63;19.67;;;;;;;9.18;91.75;100499.83;1609996;88;21502;-80
2022/01/02 10:31:15;;;;;;;31.33;17.13;;;;;;;9.24;91.69;100494.87;1609979;89;21055;-81
2022/01/02 10:33:57;;;;;;;20.87;12.50;;;;;;;9.24;91.30;100483.09;1609958;89;21162;-77
2022/01/02 10:36:40;;;;;;;19.17;12.30;;;;;;;9.22;91.04;100490.98;1609936;89;21148;-73
2022/01/02 10:39:15;;;;;;;18.07;11.20;;;;;;;9.20;90.99;100500.66;1609713;89;20991;-77
2022/01/02 10:41:49;;;;;;;19.30;11.97;;;;;;;9.26;91.18;100485.23;1618625;88;21080;-75
2022/01/02 10:44:36;;;;;;;20.17;10.60;;;;;;;9.36;91.36;100479.64;1623982;88;21066;-78
2022/01/02 10:47:25;;;;;;;24.20;12.40;;;;;;;9.47;91.16;100471.92;1623130;87;21372;-75
2022/01/02 10:50:04;;;;;;;21.37;12.87;;;;;;;9.57;91.44;100474.20;1622653;87;21548;-79
2022/01/02 10:52:41;;;;;;;20.83;13.10;;;;;;;9.65;91.52;100473.97;1623669;87;21094;-74
2022/01/02 10:55:21;;;;;;;35.90;23.40;;;;;;;9.72;91.21;100483.77;1623822;88;21069;-79
2022/01/02 10:57:51;;;;;;;49.13;31.23;;;;;;;9.77;91.38;100483.17;1624238;88;21150;-74
2022/01/02 11:00:21;;;;;;;38.80;26.85;;;;;;;9.83;91.38;100479.05;1623971;87;21078;-74
2022/01/02 11:02:49;;;;;;;32.55;20.40;;;;;;;9.88;91.26;100477.14;1624482;87;22837;-75
2022/01/02 11:05:21;;;;;;;18.53;11.77;;;;;;;9.90;91.18;100463.55;1623709;87;21591;-78
2022/01/02 11:07:51;;;;;;;23.67;15.00;;;;;;;9.92;91.10;100470.03;1624077;88;21082;-78
2022/01/02 11:10:22;;;;;;;33.23;21.50;;;;;;;9.90;91.07;100471.41;1623021;87;21070;-76
2022/01/02 11:12:52;;;;;;;26.45;15.78;;;;;;;9.91;91.06;100474.87;1623934;87;21094;-76
2022/01/02 11:15:23;;;;;;;24.15;15.48;;;;;;;9.88;90.90;100458.81;1623968;88;21166;-78
2022/01/02 11:17:51;;;;;;;33.83;19.87;;;;;;;9.91;91.18;100455.23;1623722;88;21627;-78
2022/01/02 11:20:22;;;;;;;22.43;13.97;;;;;;;9.93;91.20;100450.81;1623795;88;21074;-76
2022/01/02 11:23:04;;;;;;;16.90;11.57;;;;;;;9.91;91.07;100443.00;1624002;88;21023;-78
2022/01/02 11:26:02;;;;;;;20.53;12.40;;;;;;;9.87;90.86;100447.95;1623707;88;21065;-75
2022/01/02 11:28:43;;;;;;;17.00;11.60;;;;;;;9.88;91.01;100437.02;1623596;87;21230;-76
2022/01/02 11:31:10;;;;;;;21.93;13.30;;;;;;;9.91;91.14;100435.14;1623573;88;21058;-78
2022/01/02 11:33:41;;;;;;;23.90;13.93;;;;;;;9.94;91.16;100433.73;1623840;88;21023;-78
2022/01/02 11:36:30;;;;;;;26.10;14.77;;;;;;;9.97;91.33;100424.45;1624010;88;21094;-78
2022/01/02 11:39:05;;;;;;;23.20;14.27;;;;;;;10.02;91.27;100421.23;1623955;88;21427;-74
2022/01/02 11:41:50;;;;;;;26.43;16.17;;;;;;;10.08;91.34;100414.08;1623992;88;21135;-73